Time;durP1;ratioP1;P1;durP2;ratioP2;P2;SDS_P1;SDS_P2;PMS_P1;PMS_P2;Temp;Humidity;BMP_temperature;BMP_pressure;BME280_temperature;BME280_humidity;BME280_pressure;Samples;Min_cycle;Max_cycle;Signal;HPM_P1;HPM_P2
2021/03/17 00:01:43;;;;;;;;;;;;;;;3.40;80.81;101019.41;1657928;85;20294;-76
2021/03/17 00:04:28;;;;;;;;;;;;;;;3.42;80.87;101022.86;1651193;86;20323;-76
2021/03/17 00:07:12;;;;;;;;;;;;;;;3.41;80.84;101024.55;1655241;86;20506;-76
2021/03/17 00:09:57;;;;;;;;;;;;;;;3.40;80.89;101025.38;1636799;86;20581;-76
2021/03/17 00:12:41;;;;;;;;;;;;;;;3.44;80.95;101022.47;1633805;87;20416;-77
2021/03/17 00:15:28;;;;;;;;;;;;;;;3.47;80.94;101027.64;1633813;87;20325;-76
2021/03/17 00:18:14;;;;;;;;;;;;;;;3.49;80.93;101028.53;1638258;86;20266;-76
2021/03/17 00:20:58;;;;;;;;;;;;;;;3.50;80.94;101028.56;1635267;87;20210;-76
2021/03/17 00:23:42;;;;;;;;;;;;;;;3.53;80.98;101022.65;1645192;85;20168;-76
2021/03/17 00:26:27;;;;;;;;;;;;;;;3.53;80.99;101026.06;1611225;88;20268;-76
2021/03/17 00:29:11;;;;;;;;;;;;;;;3.55;80.96;101026.09;1593887;88;20271;-76
2021/03/17 00:31:55;;;;;;;;;;;;;;;3.53;80.98;101029.91;1567089;91;20454;-76
2021/03/17 00:34:40;;;;;;;;;;;;;;;3.55;81.02;101030.80;1608021;88;20178;-76
2021/03/17 00:37:24;;;;;;;;;;;;;;;3.55;81.00;101027.37;1617943;88;20301;-76
2021/03/17 00:40:09;;;;;;;;;;;;;;;3.56;81.03;101029.96;1568334;90;20342;-76
2021/03/17 00:42:54;;;;;;;;;;;;;;;3.56;81.00;101025.27;1591968;88;20444;-76
2021/03/17 00:45:39;;;;;;;;;;;;;;;3.53;80.99;101018.40;1591701;90;20618;-76
2021/03/17 00:48:23;;;;;;;;;;;;;;;3.51;80.97;101021.75;1567929;90;20306;-75
2021/03/17 00:51:08;;;;;;;;;;;;;;;3.48;81.06;101020.42;1612600;88;20357;-76
2021/03/17 00:53:52;;;;;;;;;;;;;;;3.48;81.09;101017.86;1617433;88;20302;-76
2021/03/17 00:56:37;;;;;;;;;;;;;;;3.47;81.06;101019.97;1590731;89;20303;-75
2021/03/17 00:59:22;;;;;;;;;;;;;;;3.44;81.12;101023.33;1610593;88;20237;-75
2021/03/17 01:02:06;;;;;;;;;;;;;;;3.44;81.15;101019.91;1628648;86;20317;-75
2021/03/17 01:04:51;;;;;;;;;;;;;;;3.44;81.16;101023.33;1625620;86;20304;-75
2021/03/17 01:07:36;;;;;;;;;;;;;;;3.42;81.11;101025.41;1642890;86;20575;-75
2021/03/17 01:10:24;;;;;;;;;;;;;;;3.40;81.18;101019.41;1650823;86;20330;-77
2021/03/17 01:13:08;;;;;;;;;;;;;;;3.41;81.21;101017.30;1649781;86;20677;-76
2021/03/17 01:15:53;;;;;;;;;;;;;;;3.40;81.15;101024.52;1637356;86;20284;-76
2021/03/17 01:18:38;;;;;;;;;;;;;;;3.38;81.21;101026.19;1643213;85;20336;-76
2021/03/17 01:21:23;;;;;;;;;;;;;;;3.36;81.22;101017.20;1637933;86;20557;-76
2021/03/17 01:24:08;;;;;;;;;;;;;;;3.33;81.21;101020.98;1625556;88;20321;-76
2021/03/17 01:26:53;;;;;;;;;;;;;;;3.30;81.22;101015.39;1631961;86;20219;-76
2021/03/17 01:29:38;;;;;;;;;;;;;;;3.31;81.32;101022.23;1656689;85;20303;-76
2021/03/17 01:32:22;;;;;;;;;;;;;;;3.31;81.29;101018.39;1697985;84;20251;-76
2021/03/17 01:35:12;;;;;;;;;;;;;;;3.30;81.30;101018.36;1650699;85;20321;-76
2021/03/17 01:37:57;;;;;;;;;;;;;;;3.29;81.31;101020.05;1656026;85;20653;-76
2021/03/17 01:40:43;;;;;;;;;;;;;;;3.29;81.36;101021.75;1663574;85;20297;-76
2021/03/17 01:43:27;;;;;;;;;;;;;;;3.29;81.34;101029.41;1651457;86;20292;-76
2021/03/17 01:46:12;;;;;;;;;;;;;;;3.26;81.33;101028.94;1641553;86;21202;-76
2021/03/17 01:48:57;;;;;;;;;;;;;;;3.25;81.40;101028.91;1651272;86;20311;-76
2021/03/17 01:51:41;;;;;;;;;;;;;;;3.26;81.42;101025.52;1631071;86;20341;-76
2021/03/17 01:54:26;;;;;;;;;;;;;;;3.26;81.41;101026.80;1632701;86;20530;-76
2021/03/17 01:57:11;;;;;;;;;;;;;;;3.26;81.43;101022.97;1643757;86;20299;-76
2021/03/17 01:59:56;;;;;;;;;;;;;;;3.27;81.47;101026.83;1635419;86;20314;-76
2021/03/17 02:02:43;;;;;;;;;;;;;;;3.28;81.46;101022.58;1599080;89;20311;-75
2021/03/17 02:05:33;;;;;;;;;;;;;;;3.25;81.39;101028.91;1606469;88;20297;-76
2021/03/17 02:08:33;;;;;;;;;;;;;;;3.21;81.44;101029.67;1624932;88;20302;-76
2021/03/17 02:11:18;;;;;;;;;;;;;;;3.19;81.44;101028.36;1599525;86;20326;-77
2021/03/17 02:14:15;;;;;;;;;;;;;;;3.18;81.50;101035.58;1600266;88;20303;-76
2021/03/17 02:17:11;;;;;;;;;;;;;;;3.15;81.46;101029.55;1599262;89;20303;-76
2021/03/17 02:20:15;;;;;;;;;;;;;;;3.10;81.49;101032.04;1614562;88;20408;-76
2021/03/17 02:23:26;;;;;;;;;;;;;;;3.06;81.57;101036.64;1599133;88;20348;-76
2021/03/17 02:26:23;;;;;;;;;;;;;;;3.05;81.63;101031.08;1599660;88;20299;-76
2021/03/17 02:29:23;;;;;;;;;;;;;;;3.05;81.61;101040.02;1618940;86;20335;-76
2021/03/17 02:32:28;;;;;;;;;;;;;;;3.06;81.64;101037.91;1579084;86;20662;-76
2021/03/17 02:35:14;;;;;;;;;;;;;;;3.04;81.62;101037.43;1652218;85;20322;-75
2021/03/17 02:38:02;;;;;;;;;;;;;;;3.03;81.71;101039.12;1632575;85;20699;-75
2021/03/17 02:40:48;;;;;;;;;;;;;;;3.04;81.70;101048.52;1634621;85;20290;-75
2021/03/17 02:43:38;;;;;;;;;;;;;;;3.04;81.66;101045.09;1647967;86;20291;-75
2021/03/17 02:46:25;;;;;;;;;;;;;;;3.05;81.71;101050.66;1654975;85;20293;-75
2021/03/17 02:49:13;;;;;;;;;;;;;;;3.08;81.74;101049.03;1648476;86;20288;-76
2021/03/17 02:52:01;;;;;;;;;;;;;;;3.09;81.70;101047.34;1626435;88;20453;-76
2021/03/17 02:54:47;;;;;;;;;;;;;;;3.07;81.58;101047.30;1626258;88;20782;-76
2021/03/17 02:57:33;;;;;;;;;;;;;;;3.04;81.53;101050.20;1599338;88;20643;-76
2021/03/17 03:00:18;;;;;;;;;;;;;;;3.01;81.55;101050.14;1625572;88;20392;-76
2021/03/17 03:03:03;;;;;;;;;;;;;;;2.98;81.60;101059.45;1625522;86;20285;-76
2021/03/17 03:05:49;;;;;;;;;;;;;;;2.99;81.63;101057.36;1625196;86;20297;-76
2021/03/17 03:08:37;;;;;;;;;;;;;;;2.97;81.60;101059.42;1637626;86;20613;-76
2021/03/17 03:11:22;;;;;;;;;;;;;;;2.96;81.55;101065.36;1637154;86;20333;-77
2021/03/17 03:14:07;;;;;;;;;;;;;;;2.93;81.55;101067.84;1625694;86;20345;-76
2021/03/17 03:16:54;;;;;;;;;;;;;;;2.89;81.52;101066.05;1637075;86;20317;-75
2021/03/17 03:19:45;;;;;;;;;;;;;;;2.85;81.55;101073.20;1632437;86;20293;-75
2021/03/17 03:22:30;;;;;;;;;;;;;;;2.80;81.48;101077.34;1625500;86;20300;-76
2021/03/17 03:25:15;;;;;;;;;;;;;;;2.73;81.52;101080.58;1637949;85;20326;-76
2021/03/17 03:28:11;;;;;;;;;;;;;;;2.66;81.48;101080.44;1682512;85;20288;-76
2021/03/17 03:30:51;;;;;;;;;;;;;;;2.57;81.43;101087.91;1645495;85;20226;-76
2021/03/17 03:33:36;;;;;;;;;;;;;;;2.50;81.43;101089.86;1648607;86;20320;-76
2021/03/17 03:36:21;;;;;;;;;;;;;;;2.38;81.38;101087.00;1643401;86;20647;-76
2021/03/17 03:39:06;;;;;;;;;;;;;;;2.29;81.41;101096.57;1625663;88;20314;-76
2021/03/17 03:41:50;;;;;;;;;;;;;;;2.19;81.43;101100.12;1625601;88;20309;-76
2021/03/17 03:44:35;;;;;;;;;;;;;;;2.11;81.50;101098.64;1637101;86;20313;-76
2021/03/17 03:47:20;;;;;;;;;;;;;;;2.05;81.45;101106.58;1629969;86;717386;-77
2021/03/17 03:50:07;;;;;;;;;;;;;;;1.98;81.47;101110.66;1638179;85;20339;-76
2021/03/17 03:53:22;;;;;;;;;;;;;;;1.92;81.48;101114.31;1652192;86;20294;-76
2021/03/17 03:56:18;;;;;;;;;;;;;;;1.88;81.48;101103.17;1636457;86;20321;-75
2021/03/17 03:59:14;;;;;;;;;;;;;;;1.85;81.54;101119.66;1655425;85;20322;-75
2021/03/17 04:02:00;;;;;;;;;;;;;;;1.83;81.58;101119.16;1656836;86;20300;-75
2021/03/17 04:04:45;;;;;;;;;;;;;;;1.81;81.64;101119.13;1627586;87;20329;-75
2021/03/17 04:07:30;;;;;;;;;;;;;;;1.83;81.64;101126.81;1627855;87;20644;-75
2021/03/17 04:10:16;;;;;;;;;;;;;;;1.80;81.61;101121.63;1552733;90;20378;-75
2021/03/17 04:13:04;;;;;;;;;;;;;;;1.78;81.62;101121.59;1606927;87;20382;-76
2021/03/17 04:15:49;;;;;;;;;;;;;;;1.73;81.56;101119.73;1511549;92;20319;-76
2021/03/17 04:18:38;;;;;;;;;;;;;;;1.70;81.63;101126.02;1579524;88;20341;-74
2021/03/17 04:21:28;;;;;;;;;;;;;;;1.68;81.65;101120.01;1547918;91;20326;-75
2021/03/17 04:24:14;;;;;;;;;;;;;;;1.69;81.72;101121.33;1621887;88;20325;-75
2021/03/17 04:27:01;;;;;;;;;;;;;;;1.72;81.72;101124.38;1518427;92;20415;-75
2021/03/17 04:29:46;;;;;;;;;;;;;;;1.70;81.69;101122.19;1631130;86;20211;-75
2021/03/17 04:32:31;;;;;;;;;;;;;;;1.70;81.68;101122.19;1664896;86;20283;-75
2021/03/17 04:35:17;;;;;;;;;;;;;;;1.70;81.73;101115.82;1654551;86;20270;-75
2021/03/17 04:38:01;;;;;;;;;;;;;;;1.71;81.73;101117.14;1665008;86;20259;-75
2021/03/17 04:40:46;;;;;;;;;;;;;;;1.70;81.68;101118.37;1664924;86;20279;-75
2021/03/17 04:43:31;;;;;;;;;;;;;;;1.71;81.76;101115.00;1664557;86;20172;-75
2021/03/17 04:46:16;;;;;;;;;;;;;;;1.73;81.81;101121.00;1664837;86;20290;-75
2021/03/17 04:49:01;;;;;;;;;;;;;;;1.76;81.83;101118.13;1664703;85;20452;-75
2021/03/17 04:51:46;;;;;;;;;;;;;;;1.79;81.86;101122.04;1653241;86;20273;-75
2021/03/17 04:54:31;;;;;;;;;;;;;;;1.84;81.85;101127.27;1659060;86;20563;-75
2021/03/17 04:57:23;;;;;;;;;;;;;;;1.81;81.78;101120.80;1664554;85;20280;-75
2021/03/17 05:00:12;;;;;;;;;;;;;;;1.79;81.78;101123.31;1655605;84;20674;-75
2021/03/17 05:03:01;;;;;;;;;;;;;;;1.79;81.85;101123.31;1659231;84;20326;-75
2021/03/17 05:05:45;;;;;;;;;;;;;;;1.84;81.95;101123.44;1660977;84;20628;-76
2021/03/17 05:08:30;;;;;;;;;;;;;;;1.88;81.99;101131.22;1650798;86;20570;-75
2021/03/17 05:11:16;;;;;;;;;;;;;;;1.89;81.93;101129.13;1639714;86;20329;-75
2021/03/17 05:14:01;;;;;;;;;;;;;;;1.91;81.90;101127.89;1651350;84;20334;-75
2021/03/17 05:16:47;;;;;;;;;;;;;;;1.91;81.94;101127.47;1645514;85;20307;-75
2021/03/17 05:19:32;;;;;;;;;;;;;;;1.91;81.84;101131.30;1657230;85;20336;-76
2021/03/17 05:22:18;;;;;;;;;;;;;;;1.85;81.80;101134.09;1659983;84;20353;-75
2021/03/17 05:25:06;;;;;;;;;;;;;;;1.81;81.92;101134.42;1654026;84;20302;-74
2021/03/17 05:27:52;;;;;;;;;;;;;;;1.81;81.95;101135.69;1661709;85;20294;-76
2021/03/17 05:30:38;;;;;;;;;;;;;;;1.83;82.03;101139.56;1657197;84;20350;-76
2021/03/17 05:33:26;;;;;;;;;;;;;;;1.86;82.07;101139.23;1662880;84;20335;-74
2021/03/17 05:36:10;;;;;;;;;;;;;;;1.87;82.02;101144.78;1666009;84;20565;-76
2021/03/17 05:38:55;;;;;;;;;;;;;;;1.88;82.01;101136.73;1636099;86;20333;-76
2021/03/17 05:41:40;;;;;;;;;;;;;;;1.90;82.01;101141.05;1649902;85;20317;-76
2021/03/17 05:44:25;;;;;;;;;;;;;;;1.94;82.09;101140.72;1655769;85;20295;-76
2021/03/17 05:47:11;;;;;;;;;;;;;;;2.01;82.05;101143.03;1662490;84;20335;-76
2021/03/17 05:49:55;;;;;;;;;;;;;;;2.01;82.02;101147.72;1656946;85;20310;-76
2021/03/17 05:52:41;;;;;;;;;;;;;;;2.06;82.09;101155.08;1661026;85;20346;-76
2021/03/17 05:55:25;;;;;;;;;;;;;;;2.08;82.01;101155.13;1667858;84;20318;-76
2021/03/17 05:58:12;;;;;;;;;;;;;;;2.06;82.02;101152.53;1661797;84;20307;-76
2021/03/17 06:00:56;;;;;;;;;;;;;;;2.08;82.00;101162.33;1615341;87;20309;-76
2021/03/17 06:03:41;;;;;;;;;;;;;;;2.09;82.10;101169.58;1618903;87;20333;-76
2021/03/17 06:06:27;;;;;;;;;;;;;;;2.08;82.05;101167.44;1610144;87;20315;-76
2021/03/17 06:09:13;;;;;;;;;;;;;;;2.09;82.12;101179.36;1590149;88;20320;-76
2021/03/17 06:11:58;;;;;;;;;;;;;;;2.08;82.02;101175.53;1661637;85;20462;-75
2021/03/17 06:14:44;;;;;;;;;;;;;;;2.05;82.09;101184.38;1655489;85;20282;-76
2021/03/17 06:17:29;;;;;;;;;;;;;;;2.07;82.17;101182.73;1656607;85;20488;-76
2021/03/17 06:20:15;;;;;;;;;;;;;;;2.14;82.21;101188.42;1652749;85;20745;-76
2021/03/17 06:23:01;;;;;;;;;;;;;;;2.20;82.24;101184.77;1648307;85;20552;-75
2021/03/17 06:25:46;;;;;;;;;;;;;;;2.26;82.25;101187.48;1658371;85;20279;-76
2021/03/17 06:28:30;;;;;;;;;;;;;;;2.29;82.21;101185.87;1654859;85;20256;-76
2021/03/17 06:31:15;;;;;;;;;;;;;;;2.35;82.28;101189.41;1665864;85;20254;-76
2021/03/17 06:33:59;;;;;;;;;;;;;;;2.41;82.29;101188.30;1658959;85;20198;-75
2021/03/17 06:36:49;;;;;;;;;;;;;;;2.48;82.34;101191.05;1657617;85;20263;-76
2021/03/17 06:39:35;;;;;;;;;;;;;;;2.54;82.24;101196.31;1656402;85;20296;-75
2021/03/17 06:42:21;;;;;;;;;;;;;;;2.56;82.19;101194.67;1647752;85;20167;-76
2021/03/17 06:45:06;;;;;;;;;;;;;;;2.56;82.13;101200.19;1642216;85;20287;-76
2021/03/17 06:47:51;;;;;;;;;;;;;;;2.54;82.23;101195.05;1605298;87;20222;-76
2021/03/17 06:50:35;;;;;;;;;;;;;;;2.59;82.32;101202.41;1580807;88;20283;-76
2021/03/17 06:53:23;;;;;;;;;;;;;;;2.66;82.40;101200.84;1597884;87;20281;-76
2021/03/17 06:56:19;;;;;;;;;;;;;;;2.72;82.34;101201.41;1600863;88;20261;-76
2021/03/17 06:59:05;;;;;;;;;;;;;;;2.80;82.37;101210.13;1652739;85;20299;-76
2021/03/17 07:01:50;;;;;;;;;;;;;;;2.88;82.44;101209.91;1665791;84;20307;-76
2021/03/17 07:04:35;;;;;;;;;;;;;;;2.92;82.35;101211.71;1649838;84;20592;-77
2021/03/17 07:07:21;;;;;;;;;;;;;;;2.97;82.35;101208.86;1661160;84;20343;-76
2021/03/17 07:10:06;;;;;;;;;;;;;;;2.98;82.23;101216.97;1633754;84;20303;-75
2021/03/17 07:12:53;;;;;;;;;;;;;;;3.00;82.29;101215.32;1661492;84;20291;-76
2021/03/17 07:15:38;;;;;;;;;;;;;;;3.06;82.30;101218.02;1660844;84;20315;-75
2021/03/17 07:18:26;;;;;;;;;;;;;;;3.07;82.26;101215.92;1661812;84;20335;-76
2021/03/17 07:21:10;;;;;;;;;;;;;;;3.05;82.19;101213.74;1661841;84;20304;-76
2021/03/17 07:23:54;;;;;;;;;;;;;;;3.09;82.38;101216.82;1660915;84;20268;-76
2021/03/17 07:26:40;;;;;;;;;;;;;;;3.14;82.35;101215.63;1663927;84;20463;-76
2021/03/17 07:29:24;;;;;;;;;;;;;;;3.21;82.38;101221.33;1664679;84;20307;-76
2021/03/17 07:32:08;;;;;;;;;;;;;;;3.27;82.42;101227.45;1658453;84;20313;-76
2021/03/17 07:34:53;;;;;;;;;;;;;;;3.36;82.43;101227.21;1629087;85;20302;-77
2021/03/17 07:37:37;;;;;;;;;;;;;;;3.44;82.48;101225.70;1663501;84;20299;-76
2021/03/17 07:40:22;;;;;;;;;;;;;;;3.51;82.42;101229.70;1657168;84;20295;-76
2021/03/17 07:43:08;;;;;;;;;;;;;;;3.56;82.34;101229.39;1662755;84;20295;-75
2021/03/17 07:45:54;;;;;;;;;;;;;;;3.58;82.28;101233.27;1658776;84;20302;-75
2021/03/17 07:48:39;;;;;;;;;;;;;;;3.59;82.24;101237.13;1665687;85;20267;-76
2021/03/17 07:51:23;;;;;;;;;;;;;;;3.58;82.16;101238.38;1660898;84;20200;-76
2021/03/17 07:54:08;;;;;;;;;;;;;;;3.55;82.21;101241.73;1660704;84;20269;-76
2021/03/17 07:56:53;;;;;;;;;;;;;;;3.52;82.14;101242.94;1661750;84;20288;-76
2021/03/17 07:59:38;;;;;;;;;;;;;;;3.47;82.12;101241.97;1663492;84;20263;-76
2021/03/17 08:02:22;;;;;;;;;;;;;;;3.46;82.21;101237.69;1625237;86;20250;-76
2021/03/17 08:05:08;;;;;;;;;;;;;;;3.44;82.09;101241.03;1645765;84;20296;-76
2021/03/17 08:07:52;;;;;;;;;;;;;;;3.39;82.13;101243.48;1664391;84;20191;-76
2021/03/17 08:10:38;;;;;;;;;;;;;;;3.40;82.27;101246.48;1658977;84;20268;-75
2021/03/17 08:13:23;;;;;;;;;;;;;;;3.41;82.17;101252.05;1664119;84;20269;-76
2021/03/17 08:16:08;;;;;;;;;;;;;;;3.45;82.29;101249.16;1664782;84;20276;-76
2021/03/17 08:18:52;;;;;;;;;;;;;;;3.49;82.26;101248.39;1657583;85;20297;-76
2021/03/17 08:21:47;;;;;;;;;;;;;;;3.61;82.37;101256.34;1664194;84;20255;-76
2021/03/17 08:24:38;;;;;;;;;;;;;;;3.77;82.49;101260.08;1663785;84;20275;-76
2021/03/17 08:27:24;;;;;;;;;;;;;;;4.01;82.58;101256.77;1664017;84;20255;-76
2021/03/17 08:30:11;;;;;;;;;;;;;;;4.15;82.18;101256.64;1660768;84;20279;-77
2021/03/17 08:33:01;;;;;;;;;;;;;;;4.21;82.04;101258.02;1663985;85;20269;-77
2021/03/17 08:36:09;;;;;;;;;;;;;;;4.26;81.68;101258.11;1663693;84;20291;-76
2021/03/17 08:38:56;;;;;;;;;;;;;;;4.34;81.72;101254.00;1665516;84;20295;-76
2021/03/17 08:41:46;;;;;;;;;;;;;;;4.41;81.82;101249.86;1662077;84;20728;-76
2021/03/17 08:44:32;;;;;;;;;;;;;;;4.56;81.95;101252.30;1661656;84;20299;-76
2021/03/17 08:47:30;;;;;;;;;;;;;;;4.71;81.53;101252.97;1662549;84;20327;-76
2021/03/17 08:50:20;;;;;;;;;;;;;;;4.86;81.79;101251.10;1659113;84;20624;-76
2021/03/17 08:53:06;;;;;;;;;;;;;;;4.95;81.33;101253.82;1661409;84;20311;-76
2021/03/17 08:55:51;;;;;;;;;;;;;;;4.89;81.13;101250.73;1661158;84;20306;-76
2021/03/17 08:58:35;;;;;;;;;;;;;;;4.82;81.19;101256.59;1639885;85;20326;-77
2021/03/17 09:01:32;;;;;;;;;;;;;;;4.78;81.09;101261.63;1658610;85;20665;-76
2021/03/17 09:04:46;;;;;;;;;;;;;;;4.83;81.42;101254.47;1657627;85;20321;-76
2021/03/17 09:07:35;;;;;;;;;;;;;;;4.81;81.10;101257.84;1658103;85;20295;-76
2021/03/17 09:10:20;;;;;;;;;;;;;;;4.73;81.04;101259.41;1659590;85;20287;-76
2021/03/17 09:13:04;;;;;;;;;;;;;;;4.69;81.04;101262.74;1659912;85;20338;-77
2021/03/17 09:15:50;;;;;;;;;;;;;;;4.71;81.23;101269.62;1652720;85;20307;-76
2021/03/17 09:18:35;;;;;;;;;;;;;;;4.69;80.79;101269.14;1655173;85;20324;-77
2021/03/17 09:21:30;;;;;;;;;;;;;;;4.69;81.10;101276.41;1656104;85;20284;-76
2021/03/17 09:24:28;;;;;;;;;;;;;;;4.73;80.91;101276.05;1653906;85;20334;-76
2021/03/17 09:27:13;;;;;;;;;;;;;;;4.77;81.12;101279.12;1655803;85;20323;-76
2021/03/17 09:29:57;;;;;;;;;;;;;;;4.91;81.30;101281.09;1654170;85;20632;-76
2021/03/17 09:32:42;;;;;;;;;;;;;;;5.10;81.40;101276.29;1626384;87;20286;-76
2021/03/17 09:35:26;;;;;;;;;;;;;;;5.17;80.92;101284.11;1615564;87;20301;-76
2021/03/17 09:38:16;;;;;;;;;;;;;;;5.23;81.03;101285.46;1658339;85;20295;-76
2021/03/17 09:41:12;;;;;;;;;;;;;;;5.33;80.84;101273.66;1663833;85;20326;-76
2021/03/17 09:44:02;;;;;;;;;;;;;;;5.39;80.83;101281.86;1656414;85;20695;-76
2021/03/17 09:46:48;;;;;;;;;;;;;;;5.42;80.65;101271.66;1660757;85;20300;-76
2021/03/17 09:49:34;;;;;;;;;;;;;;;5.57;80.77;101271.89;1655149;85;20290;-76
2021/03/17 09:52:18;;;;;;;;;;;;;;;5.56;80.50;101276.16;1656414;85;20295;-76
2021/03/17 09:55:03;;;;;;;;;;;;;;;5.55;80.33;101271.00;1659455;85;20729;-76
2021/03/17 09:57:51;;;;;;;;;;;;;;;5.53;80.32;101272.69;1661484;85;20262;-76
2021/03/17 10:00:37;;;;;;;;;;;;;;;5.52;80.30;101270.95;1658202;85;20638;-77
2021/03/17 10:03:21;;;;;;;;;;;;;;;5.51;80.46;101276.51;1636816;85;20180;-77
2021/03/17 10:06:05;;;;;;;;;;;;;;;5.55;80.26;101279.56;1663231;85;20317;-77
2021/03/17 10:08:56;;;;;;;;;;;;;;;5.64;80.40;101273.28;1657374;85;20268;-77
2021/03/17 10:11:41;;;;;;;;;;;;;;;5.68;79.81;101284.45;1654066;85;20288;-77
2021/03/17 10:14:25;;;;;;;;;;;;;;;5.62;79.96;101283.95;1659039;85;20252;-77
2021/03/17 10:17:10;;;;;;;;;;;;;;;5.57;79.88;101282.16;1652264;85;20541;-77
2021/03/17 10:19:57;;;;;;;;;;;;;;;5.52;79.82;101283.36;1659350;85;20168;-77
2021/03/17 10:22:43;;;;;;;;;;;;;;;5.46;79.78;101291.38;1658273;85;20280;-77
2021/03/17 10:25:29;;;;;;;;;;;;;;;5.36;79.65;101293.36;1651083;85;20271;-77
2021/03/17 10:28:14;;;;;;;;;;;;;;;5.38;79.90;101292.54;1658617;85;20216;-76
2021/03/17 10:30:59;;;;;;;;;;;;;;;5.45;79.83;101287.09;1654299;85;20284;-76
2021/03/17 10:33:46;;;;;;;;;;;;;;;5.54;79.92;101283.39;1658969;85;20327;-77
2021/03/17 10:36:34;;;;;;;;;;;;;;;5.63;79.74;101286.95;1656422;85;20358;-76
2021/03/17 10:39:20;;;;;;;;;;;;;;;5.72;79.63;101288.77;1656121;85;20335;-76
2021/03/17 10:42:26;;;;;;;;;;;;;;;5.79;79.23;101282.02;1655502;85;20662;-76
2021/03/17 10:45:13;;;;;;;;;;;;;;;5.76;79.29;101282.83;1653757;85;20308;-76
2021/03/17 10:47:58;;;;;;;;;;;;;;;5.85;79.37;101274.41;1654818;85;20323;-75
2021/03/17 10:50:44;;;;;;;;;;;;;;;5.94;79.37;101279.28;1655635;85;20318;-75
2021/03/17 10:53:33;;;;;;;;;;;;;;;6.06;79.21;101273.87;1658067;85;20277;-75
2021/03/17 10:56:16;;;;;;;;;;;;;;;6.15;79.10;101276.13;1640652;85;20291;-76
2021/03/17 10:59:01;;;;;;;;;;;;;;;6.20;79.06;101271.05;1659353;85;20591;-76
2021/03/17 11:01:45;;;;;;;;;;;;;;;6.29;78.94;101273.70;1662975;84;20291;-76
2021/03/17 11:04:30;;;;;;;;;;;;;;;6.39;79.14;101274.25;1660462;84;20343;-76
2021/03/17 11:07:15;;;;;;;;;;;;;;;6.48;78.82;101277.35;1664171;84;20344;-76
2021/03/17 11:09:59;;;;;;;;;;;;;;;6.58;78.63;101259.91;1663343;84;21018;-77
2021/03/17 11:12:44;;;;;;;;;;;;;;;6.71;78.55;101269.89;1662537;84;20315;-76
2021/03/17 11:15:31;;;;;;;;;;;;;;;6.76;78.00;101264.37;1664398;84;20327;-76
2021/03/17 11:18:28;;;;;;;;;;;;;;;6.78;78.18;101275.50;1661995;84;20291;-76
2021/03/17 11:21:33;;;;;;;;;;;;;;;6.82;78.11;101266.98;1661302;84;20275;-77
2021/03/17 11:24:18;;;;;;;;;;;;;;;6.77;77.48;101268.64;1662851;84;21024;-76
2021/03/17 11:27:03;;;;;;;;;;;;;;;6.58;77.83;101267.20;1662108;84;20303;-77
2021/03/17 11:29:54;;;;;;;;;;;;;;;6.48;77.77;101269.22;1658412;84;20603;-76
2021/03/17 11:32:39;;;;;;;;;;;;;;;6.42;77.67;101271.72;1660082;84;20263;-78
2021/03/17 11:35:24;;;;;;;;;;;;;;;6.42;77.95;101275.57;1664054;84;20312;-77
2021/03/17 11:38:08;;;;;;;;;;;;;;;6.46;77.93;101266.20;1664312;84;20650;-77
2021/03/17 11:40:54;;;;;;;;;;;;;;;6.46;77.72;101276.47;1657562;84;20260;-77
2021/03/17 11:43:39;;;;;;;;;;;;;;;6.44;77.64;101276.88;1660604;84;20297;-77
2021/03/17 11:46:24;;;;;;;;;;;;;;;6.47;77.53;101270.06;1666499;84;20411;-77
2021/03/17 11:49:08;;;;;;;;;;;;;;;6.57;77.76;101271.89;1662825;84;20223;-77
2021/03/17 11:51:53;;;;;;;;;;;;;;;6.73;77.71;101264.34;1660390;84;20286;-76
2021/03/17 11:54:38;;;;;;;;;;;;;;;6.85;77.17;101261.45;1661735;84;20551;-77
2021/03/17 11:57:22;;;;;;;;;;;;;;;6.82;77.12;101271.70;1656939;84;20351;-79
2021/03/17 12:00:08;;;;;;;;;;;;;;;6.72;76.85;101272.91;1660370;84;20315;-79
2021/03/17 12:02:52;;;;;;;;;;;;;;;6.61;76.72;101283.06;1604851;87;20302;-79
2021/03/17 12:05:38;;;;;;;;;;;;;;;6.47;76.75;101281.63;1613779;87;20669;-79
2021/03/17 12:08:23;;;;;;;;;;;;;;;6.34;76.61;101288.75;1588696;88;20281;-79
2021/03/17 12:11:07;;;;;;;;;;;;;;;6.25;76.83;101288.63;1642364;85;20255;-80
2021/03/17 12:13:52;;;;;;;;;;;;;;;6.23;77.03;101287.36;1611660;87;20302;-79
2021/03/17 12:16:36;;;;;;;;;;;;;;;6.21;76.89;101285.20;1593906;88;20316;-79
2021/03/17 12:19:20;;;;;;;;;;;;;;;6.16;76.89;101280.84;1611896;87;20281;-79
2021/03/17 12:22:05;;;;;;;;;;;;;;;6.15;76.77;101282.55;1592394;88;20260;-79
2021/03/17 12:24:49;;;;;;;;;;;;;;;6.24;77.04;101280.48;1617208;87;20280;-81
2021/03/17 12:27:34;;;;;;;;;;;;;;;6.42;76.91;101280.71;1588433;88;20281;-79
2021/03/17 12:30:20;;;;;;;;;;;;;;;6.59;76.71;101278.33;1619081;87;20247;-79
2021/03/17 12:33:05;;;;;;;;;;;;;;;6.76;76.54;101281.91;1615394;87;20278;-80
2021/03/17 12:35:49;;;;;;;;;;;;;;;6.76;76.05;101280.63;1615880;87;20277;-79
2021/03/17 12:38:34;;;;;;;;;;;;;;;6.70;75.92;101288.31;1613603;87;20326;-79
2021/03/17 12:41:18;;;;;;;;;;;;;;;6.62;75.86;101284.37;1587495;88;20303;-80
2021/03/17 12:44:04;;;;;;;;;;;;;;;6.57;76.01;101284.73;1658106;85;20295;-80
2021/03/17 12:46:49;;;;;;;;;;;;;;;6.56;75.98;101282.16;1657083;85;20292;-80
2021/03/17 12:49:33;;;;;;;;;;;;;;;6.66;76.19;101290.83;1659978;85;20327;-78
2021/03/17 12:52:18;;;;;;;;;;;;;;;6.79;76.07;101272.09;1654319;85;20613;-78
2021/03/17 12:55:06;;;;;;;;;;;;;;;6.87;75.87;101276.88;1658968;85;20363;-79
2021/03/17 12:57:51;;;;;;;;;;;;;;;6.93;75.74;101276.52;1656626;85;20307;-79
2021/03/17 13:00:35;;;;;;;;;;;;;;;6.90;75.31;101275.62;1656929;85;20567;-79
2021/03/17 13:03:20;;;;;;;;;;;;;;;6.87;75.15;101273.03;1663368;84;20299;-79
2021/03/17 13:06:05;;;;;;;;;;;;;;;6.86;75.21;101281.59;1661215;84;20256;-80
2021/03/17 13:08:49;;;;;;;;;;;;;;;6.84;75.30;101290.98;1664709;84;20652;-80
2021/03/17 13:11:36;;;;;;;;;;;;;;;6.80;75.20;101283.67;1592597;84;5000971;-80
2021/03/17 13:14:20;;;;;;;;;;;;;;;6.76;75.05;101289.62;1594848;87;20293;-81
2021/03/17 13:17:05;;;;;;;;;;;;;;;6.68;74.98;101286.56;1660909;84;20335;-80
2021/03/17 13:19:49;;;;;;;;;;;;;;;6.68;74.97;101286.56;1660109;85;20295;-78
2021/03/17 13:22:34;;;;;;;;;;;;;;;6.67;74.95;101291.27;1659951;84;20310;-78
2021/03/17 13:25:19;;;;;;;;;;;;;;;6.63;75.00;101292.52;1617344;87;20318;-78
2021/03/17 13:28:06;;;;;;;;;;;;;;;6.56;74.89;101286.88;1659467;84;20328;-79
2021/03/17 13:30:50;;;;;;;;;;;;;;;6.55;74.80;101289.42;1656215;85;20299;-77
2021/03/17 13:33:35;;;;;;;;;;;;;;;6.55;74.86;101294.56;1618984;87;20297;-78
2021/03/17 13:36:19;;;;;;;;;;;;;;;6.54;74.83;101296.69;1658209;84;20339;-78
2021/03/17 13:39:05;;;;;;;;;;;;;;;6.56;74.91;101297.57;1660976;84;20294;-78
2021/03/17 13:41:50;;;;;;;;;;;;;;;6.57;74.46;101297.59;1616269;87;20338;-77
2021/03/17 13:44:34;;;;;;;;;;;;;;;6.55;74.55;101298.41;1660704;84;20320;-78
2021/03/17 13:47:19;;;;;;;;;;;;;;;6.57;74.51;101305.72;1661371;84;20271;-78
2021/03/17 13:50:09;;;;;;;;;;;;;;;6.57;74.08;101308.29;1617970;87;20617;-78
2021/03/17 13:52:56;;;;;;;;;;;;;;;6.48;74.21;101303.91;1658038;84;20194;-78
2021/03/17 13:55:41;;;;;;;;;;;;;;;6.43;74.26;101309.83;1615044;87;20250;-78
2021/03/17 13:58:25;;;;;;;;;;;;;;;6.37;74.02;101309.75;1624249;87;20474;-78
2021/03/17 14:01:09;;;;;;;;;;;;;;;6.29;74.01;101312.23;1625298;86;20282;-78
2021/03/17 14:03:55;;;;;;;;;;;;;;;6.22;73.99;101313.88;1610339;87;20306;-78
2021/03/17 14:06:40;;;;;;;;;;;;;;;6.23;74.14;101317.31;1615493;87;20545;-77
2021/03/17 14:09:24;;;;;;;;;;;;;;;6.26;73.97;101319.89;1614426;87;20303;-77
2021/03/17 14:12:09;;;;;;;;;;;;;;;6.25;73.95;101327.16;1621960;87;20274;-76
2021/03/17 14:14:53;;;;;;;;;;;;;;;6.24;73.79;101327.58;1620828;87;20285;-77
2021/03/17 14:17:38;;;;;;;;;;;;;;;6.22;73.69;101323.30;1656946;85;20288;-76
2021/03/17 14:20:25;;;;;;;;;;;;;;;6.24;73.61;101322.86;1653295;85;20744;-76
2021/03/17 14:23:09;;;;;;;;;;;;;;;6.23;73.70;101320.75;1612210;87;20262;-76
2021/03/17 14:25:54;;;;;;;;;;;;;;;6.26;73.58;101323.32;1604074;86;393916;-76